createdAt,value
2023-03-04T00:00:01.351Z,30.00
2023-03-04T00:02:28.370Z,27.33
2023-03-04T00:04:55.259Z,0.00
2023-03-04T00:07:22.175Z,24.67
2023-03-04T00:09:49.118Z,29.00
2023-03-04T00:12:16.084Z,23.00
2023-03-04T00:14:42.992Z,20.33
2023-03-04T00:17:09.959Z,19.33
2023-03-04T00:19:36.898Z,18.00
2023-03-04T00:22:04.655Z,22.67
2023-03-04T00:24:32.385Z,25.00
2023-03-04T00:26:59.549Z,29.00
2023-03-04T00:29:27.114Z,22.00
2023-03-04T00:31:54.565Z,18.67
2023-03-04T00:34:22.227Z,12.00
2023-03-04T00:36:49.281Z,16.67
2023-03-04T00:39:16.708Z,22.33
2023-03-04T00:41:43.728Z,21.33
2023-03-04T00:44:10.676Z,22.33
2023-03-04T00:46:37.642Z,23.00
2023-03-04T00:49:05.010Z,19.00
2023-03-04T00:51:31.944Z,19.00
2023-03-04T00:54:00.807Z,26.00
2023-03-04T00:56:28.369Z,23.00
2023-03-04T00:58:55.990Z,23.00
2023-03-04T01:01:23.414Z,20.00
2023-03-04T01:03:50.391Z,16.00
2023-03-04T01:06:18.159Z,15.00
2023-03-04T01:08:45.146Z,7.00
2023-03-04T01:11:12.385Z,23.00
2023-03-04T01:13:39.984Z,25.00
2023-03-04T01:16:07.891Z,22.67
2023-03-04T01:18:34.935Z,22.33
2023-03-04T01:21:01.893Z,18.00
2023-03-04T01:23:28.811Z,27.67
2023-03-04T01:25:55.904Z,26.00
2023-03-04T01:28:22.817Z,14.00
2023-03-04T01:30:49.847Z,28.33
2023-03-04T01:33:16.815Z,29.00
2023-03-04T01:35:43.797Z,29.67
2023-03-04T01:38:10.780Z,19.00
2023-03-04T01:40:38.547Z,25.67
2023-03-04T01:43:06.024Z,26.67
2023-03-04T01:45:34.592Z,25.67
2023-03-04T01:48:01.584Z,25.00
2023-03-04T01:50:34.316Z,25.67
2023-03-04T01:53:02.431Z,27.33
2023-03-04T01:55:30.631Z,29.00
2023-03-04T01:57:57.934Z,28.00
2023-03-04T02:00:33.410Z,22.33
2023-03-04T02:03:07.394Z,30.00
2023-03-04T02:05:37.431Z,27.00
2023-03-04T02:08:27.367Z,23.33
2023-03-04T02:11:11.998Z,27.33
2023-03-04T02:13:58.661Z,22.33
2023-03-04T02:16:44.381Z,19.67
2023-03-04T02:19:56.221Z,10.67
2023-03-04T02:22:42.679Z,18.67
2023-03-04T02:25:21.663Z,19.00
2023-03-04T02:27:48.638Z,22.67
2023-03-04T02:30:16.989Z,26.67
2023-03-04T02:32:43.941Z,25.67
2023-03-04T02:35:18.376Z,26.00
2023-03-04T02:37:45.520Z,23.00
2023-03-04T02:40:23.823Z,18.33
2023-03-04T02:42:50.915Z,22.67
2023-03-04T02:45:40.875Z,26.67
2023-03-04T02:48:08.912Z,23.00
2023-03-04T02:50:40.828Z,23.00
2023-03-04T02:53:07.816Z,21.33
2023-03-04T02:55:34.810Z,25.00
2023-03-04T02:58:01.729Z,25.67
2023-03-04T03:00:29.450Z,25.00
2023-03-04T03:02:59.628Z,18.00
2023-03-04T03:05:28.232Z,25.33
2023-03-04T03:07:55.552Z,23.33
2023-03-04T03:10:23.028Z,22.33
2023-03-04T03:12:49.939Z,24.67
2023-03-04T03:15:17.069Z,25.00
2023-03-04T03:17:44.324Z,22.00
2023-03-04T03:20:13.115Z,16.00
2023-03-04T03:22:40.988Z,22.67
2023-03-04T03:25:09.086Z,25.67
2023-03-04T03:27:36.172Z,26.00
2023-03-04T03:30:04.274Z,25.67
2023-03-04T03:32:31.261Z,28.00
2023-03-04T03:34:58.261Z,27.33
2023-03-04T03:37:25.414Z,24.33
2023-03-04T03:39:52.401Z,26.67
2023-03-04T03:42:19.340Z,28.00
2023-03-04T03:44:46.719Z,26.33
2023-03-04T03:47:13.703Z,28.00
2023-03-04T03:49:40.589Z,25.67
2023-03-04T03:52:08.622Z,27.67
2023-03-04T03:54:35.861Z,16.00
2023-03-04T03:57:02.890Z,25.33
2023-03-04T03:59:29.900Z,28.00
2023-03-04T04:01:56.971Z,22.67
2023-03-04T04:04:23.918Z,21.67
2023-03-04T04:06:50.854Z,25.67
2023-03-04T04:09:17.782Z,22.00
2023-03-04T04:11:44.661Z,24.67
2023-03-04T04:14:14.714Z,21.33
2023-03-04T04:16:42.060Z,24.00
2023-03-04T04:19:16.613Z,26.00
2023-03-04T04:21:43.657Z,20.33
2023-03-04T04:24:10.580Z,28.00
2023-03-04T04:26:37.605Z,28.33
2023-03-04T04:29:04.625Z,28.00
2023-03-04T04:31:31.563Z,31.00
2023-03-04T04:33:58.581Z,31.33
2023-03-04T04:36:25.537Z,29.00
2023-03-04T04:38:52.466Z,30.00
2023-03-04T04:41:29.144Z,28.00
2023-03-04T04:43:56.156Z,28.00
2023-03-04T04:46:23.729Z,26.33
2023-03-04T04:48:50.952Z,23.00
2023-03-04T04:51:18.329Z,27.67
2023-03-04T04:53:45.256Z,31.75
2023-03-04T04:56:14.396Z,28.33
2023-03-04T04:58:41.324Z,35.75
2023-03-04T05:01:08.348Z,29.00
2023-03-04T05:03:36.857Z,31.00
2023-03-04T05:06:05.463Z,31.00
2023-03-04T05:08:32.391Z,34.00
2023-03-04T05:10:59.366Z,32.00
2023-03-04T05:13:26.330Z,30.75
2023-03-04T05:15:54.921Z,32.25
2023-03-04T05:18:24.326Z,35.00
2023-03-04T05:20:59.969Z,28.33
2023-03-04T05:23:28.597Z,27.00
2023-03-04T05:25:56.009Z,23.00
2023-03-04T05:28:23.098Z,26.00
2023-03-04T05:30:50.116Z,27.33
2023-03-04T05:33:18.674Z,22.00
2023-03-04T05:35:48.917Z,28.00
2023-03-04T05:38:18.234Z,24.67
2023-03-04T05:40:46.140Z,28.00
2023-03-04T05:43:13.260Z,25.00
2023-03-04T05:45:40.955Z,19.67
2023-03-04T05:48:08.826Z,20.67
2023-03-04T05:50:36.248Z,23.00
2023-03-04T05:53:03.221Z,25.67
2023-03-04T05:55:30.379Z,24.33
2023-03-04T05:57:58.382Z,21.33
2023-03-04T06:00:25.616Z,24.33
2023-03-04T06:02:52.878Z,29.00
2023-03-04T06:05:20.992Z,22.00
2023-03-04T06:07:48.136Z,22.67
2023-03-04T06:10:18.049Z,22.00
2023-03-04T06:12:45.062Z,24.00
2023-03-04T06:15:13.194Z,27.33
2023-03-04T06:17:42.335Z,29.67
2023-03-04T06:20:11.524Z,26.33
2023-03-04T06:22:38.469Z,25.00
2023-03-04T06:25:05.807Z,19.33
2023-03-04T06:27:32.769Z,19.67
2023-03-04T06:30:00.100Z,19.33
2023-03-04T06:32:29.830Z,22.67
2023-03-04T06:34:56.789Z,22.00
2023-03-04T06:37:23.924Z,25.00
2023-03-04T06:39:50.992Z,23.67
2023-03-04T06:42:17.978Z,19.00
2023-03-04T06:44:44.919Z,21.33
2023-03-04T06:47:11.854Z,21.67
2023-03-04T06:49:38.724Z,28.00
2023-03-04T06:52:05.821Z,28.00
2023-03-04T06:54:32.701Z,22.67
2023-03-04T06:56:59.649Z,28.00
2023-03-04T06:59:26.626Z,22.00
2023-03-04T07:01:53.520Z,25.67
2023-03-04T07:04:20.648Z,23.67
2023-03-04T07:06:47.590Z,28.00
2023-03-04T07:09:14.520Z,25.67
2023-03-04T07:11:41.862Z,25.00
2023-03-04T07:14:08.759Z,28.33
2023-03-04T07:16:35.755Z,29.67
2023-03-04T07:19:02.747Z,28.00
2023-03-04T07:21:30.093Z,25.67
2023-03-04T07:23:57.149Z,29.00
2023-03-04T07:26:24.060Z,29.67
2023-03-04T07:28:52.523Z,28.00
2023-03-04T07:31:30.242Z,28.00
2023-03-04T07:33:59.489Z,31.00
2023-03-04T07:36:27.163Z,27.33
2023-03-04T07:38:57.694Z,25.33
2023-03-04T07:41:27.070Z,22.33
2023-03-04T07:43:54.150Z,27.67
2023-03-04T07:46:21.220Z,30.00
2023-03-04T07:48:48.135Z,29.33
2023-03-04T07:51:21.138Z,24.33
2023-03-04T07:53:50.478Z,28.33
2023-03-04T07:56:20.300Z,29.00
2023-03-04T07:58:47.655Z,25.33
2023-03-04T08:01:17.263Z,26.00
2023-03-04T08:03:44.339Z,29.00
2023-03-04T08:06:15.158Z,27.33
2023-03-04T08:08:43.318Z,27.00
2023-03-04T08:11:13.934Z,27.33
2023-03-04T08:13:41.024Z,27.33
2023-03-04T08:16:08.525Z,27.00
2023-03-04T08:18:35.551Z,23.00
2023-03-04T08:21:02.500Z,27.00
2023-03-04T08:23:29.423Z,8.67
2023-03-04T08:25:56.340Z,24.67
2023-03-04T08:28:23.273Z,28.00
2023-03-04T08:30:54.680Z,24.67
2023-03-04T08:33:21.727Z,26.00
2023-03-04T08:35:48.659Z,23.67
2023-03-04T08:38:15.599Z,22.67
2023-03-04T08:40:42.534Z,22.00
2023-03-04T08:43:09.589Z,23.00
2023-03-04T08:45:36.766Z,17.33
2023-03-04T08:48:03.734Z,26.00
2023-03-04T08:50:30.759Z,19.00
2023-03-04T08:52:59.512Z,23.33
2023-03-04T08:55:26.426Z,26.00
2023-03-04T08:57:53.478Z,30.00
2023-03-04T09:00:21.519Z,23.67
2023-03-04T09:02:48.464Z,25.67
2023-03-04T09:05:15.378Z,25.00
2023-03-04T09:07:42.330Z,25.00
2023-03-04T09:10:09.974Z,22.00
2023-03-04T09:12:36.888Z,23.00
2023-03-04T09:15:11.434Z,19.33
2023-03-04T09:17:40.916Z,19.00
2023-03-04T09:20:10.524Z,22.67
2023-03-04T09:22:41.437Z,23.33
2023-03-04T09:25:12.847Z,23.67
2023-03-04T09:27:40.467Z,21.33
2023-03-04T09:30:08.851Z,23.33
2023-03-04T09:32:35.806Z,24.00
2023-03-04T09:35:02.772Z,17.67
2023-03-04T09:37:29.680Z,22.00
2023-03-04T09:39:56.590Z,23.67
2023-03-04T09:42:33.747Z,23.33
2023-03-04T09:45:02.492Z,22.00
2023-03-04T09:47:30.334Z,25.00
2023-03-04T09:50:01.642Z,24.67
2023-03-04T09:52:38.872Z,23.00
2023-03-04T09:55:25.674Z,20.67
2023-03-04T09:58:03.670Z,27.00
2023-03-04T10:00:47.627Z,26.00
2023-03-04T10:03:25.419Z,27.00
2023-03-04T10:06:06.332Z,27.00
2023-03-04T10:08:50.678Z,27.00
2023-03-04T10:11:33.036Z,26.33
2023-03-04T10:14:04.148Z,26.67
2023-03-04T10:16:41.857Z,26.00
2023-03-04T10:19:14.631Z,26.33
2023-03-04T10:21:50.091Z,25.00
2023-03-04T10:24:22.950Z,23.00
2023-03-04T10:27:02.620Z,27.00
2023-03-04T10:29:32.325Z,24.33
2023-03-04T10:31:59.523Z,21.33
2023-03-04T10:34:26.699Z,21.67
2023-03-04T10:37:08.971Z,20.00
2023-03-04T10:39:41.869Z,20.67
2023-03-04T10:42:14.645Z,22.67
2023-03-04T10:44:59.002Z,23.00
2023-03-04T10:47:28.640Z,21.33
2023-03-04T10:50:00.840Z,20.67
2023-03-04T10:52:30.934Z,13.00
2023-03-04T10:55:04.392Z,24.33
2023-03-04T10:57:43.869Z,16.00
2023-03-04T11:00:34.116Z,20.00
2023-03-04T11:03:24.119Z,16.00
2023-03-04T11:05:53.884Z,24.00
2023-03-04T11:08:24.049Z,19.00
2023-03-04T11:10:52.430Z,19.67
2023-03-04T11:13:25.612Z,24.33
2023-03-04T11:15:56.812Z,27.00
2023-03-04T11:18:53.498Z,27.33
2023-03-04T11:21:23.731Z,20.00
2023-03-04T11:23:50.593Z,30.67
2023-03-04T11:26:22.421Z,29.00
2023-03-04T11:29:17.459Z,27.00
2023-03-04T11:31:53.155Z,28.33
2023-03-04T11:34:32.200Z,25.33
2023-03-04T11:37:21.813Z,28.67
2023-03-04T11:39:54.330Z,21.33
2023-03-04T11:42:33.105Z,27.00
2023-03-04T11:45:00.260Z,26.67
2023-03-04T11:48:04.874Z,28.00
2023-03-04T11:50:53.693Z,28.00
2023-03-04T11:53:41.050Z,31.00
2023-03-04T11:56:41.430Z,31.00
2023-03-04T11:59:40.284Z,30.00
2023-03-04T12:02:28.680Z,29.00
2023-03-04T12:05:30.865Z,28.00
2023-03-04T12:08:36.859Z,30.67
2023-03-04T12:11:40.427Z,30.00
2023-03-04T12:14:18.021Z,27.00
2023-03-04T12:17:09.783Z,27.67
2023-03-04T12:20:14.657Z,29.33
2023-03-04T12:23:09.322Z,28.00
2023-03-04T12:26:03.627Z,30.33
2023-03-04T12:28:39.337Z,27.00
2023-03-04T12:31:34.120Z,31.00
2023-03-04T12:34:12.889Z,30.00
2023-03-04T12:37:05.570Z,28.00
2023-03-04T12:39:41.647Z,28.00
2023-03-04T12:42:33.257Z,24.33
2023-03-04T12:45:23.616Z,24.33
2023-03-04T12:48:15.146Z,28.00
2023-03-04T12:51:04.491Z,26.00
2023-03-04T12:53:38.432Z,27.67
2023-03-04T12:56:08.693Z,29.00
2023-03-04T12:58:37.495Z,26.33
2023-03-04T13:01:12.908Z,25.00
2023-03-04T13:04:02.376Z,29.00
2023-03-04T13:06:34.540Z,26.00
2023-03-04T13:09:22.424Z,19.33
2023-03-04T13:11:49.353Z,30.67
2023-03-04T13:14:18.337Z,28.33
2023-03-04T13:16:54.199Z,23.33
2023-03-04T13:19:51.286Z,26.00
2023-03-04T13:22:43.747Z,24.33
2023-03-04T13:25:36.878Z,23.33
2023-03-04T13:28:16.363Z,28.33
2023-03-04T13:31:07.025Z,24.00
2023-03-04T13:33:34.703Z,25.67
2023-03-04T13:36:05.537Z,25.33
2023-03-04T13:38:36.700Z,20.33
2023-03-04T13:41:21.858Z,20.33
2023-03-04T13:43:53.167Z,19.33
2023-03-04T13:46:20.108Z,16.33
2023-03-04T13:48:49.900Z,17.33
2023-03-04T13:51:30.431Z,18.33
2023-03-04T13:54:00.773Z,18.00
2023-03-04T13:56:38.693Z,25.00
2023-03-04T13:59:08.607Z,22.33
2023-03-04T14:01:48.513Z,17.00
2023-03-04T14:04:27.979Z,16.67
2023-03-04T14:07:00.268Z,21.00
2023-03-04T14:09:32.095Z,21.00
2023-03-04T14:12:15.327Z,20.33
2023-03-04T14:14:51.150Z,18.67
2023-03-04T14:17:25.703Z,19.33
2023-03-04T14:19:53.979Z,0.00
2023-03-04T14:22:39.289Z,18.00
2023-03-04T14:25:23.030Z,21.33
2023-03-04T14:27:49.979Z,22.33
2023-03-04T14:30:31.869Z,21.00
2023-03-04T14:33:09.609Z,14.33
2023-03-04T14:35:36.855Z,18.67
2023-03-04T14:38:05.352Z,23.33
2023-03-04T14:40:45.700Z,21.00
2023-03-04T14:43:20.218Z,25.67
2023-03-04T14:45:50.865Z,23.33
2023-03-04T14:48:26.625Z,23.33
2023-03-04T14:50:55.265Z,22.33
2023-03-04T14:53:24.771Z,23.33
2023-03-04T14:55:58.174Z,22.00
2023-03-04T14:58:55.612Z,20.33
2023-03-04T15:01:29.711Z,18.00
2023-03-04T15:03:56.647Z,25.00
2023-03-04T15:06:26.580Z,21.33
2023-03-04T15:08:56.314Z,26.00
2023-03-04T15:11:46.905Z,25.33
2023-03-04T15:14:50.988Z,23.00
2023-03-04T15:17:39.434Z,24.33
2023-03-04T15:20:06.315Z,26.00
2023-03-04T15:22:56.722Z,24.33
2023-03-04T15:25:24.142Z,23.33
2023-03-04T15:27:52.057Z,26.67
2023-03-04T15:30:27.688Z,25.33
2023-03-04T15:32:58.592Z,23.67
2023-03-04T15:35:30.546Z,24.00
2023-03-04T15:37:57.969Z,17.67
2023-03-04T15:40:29.681Z,20.33
2023-03-04T15:42:59.024Z,17.00
2023-03-04T15:45:29.829Z,23.00
2023-03-04T15:47:57.326Z,22.00
2023-03-04T15:50:29.016Z,23.67
2023-03-04T15:53:02.662Z,23.00
2023-03-04T15:55:32.224Z,22.00
2023-03-04T15:58:00.763Z,22.33
2023-03-04T16:00:28.084Z,24.33
2023-03-04T16:02:55.269Z,22.00
2023-03-04T16:05:22.309Z,23.00
2023-03-04T16:07:51.209Z,24.67
2023-03-04T16:10:29.946Z,22.00
2023-03-04T16:12:57.156Z,21.33
2023-03-04T16:15:27.132Z,21.00
2023-03-04T16:17:54.594Z,20.33
2023-03-04T16:20:24.994Z,20.67
2023-03-04T16:22:55.053Z,29.00
2023-03-04T16:25:24.225Z,25.00
2023-03-04T16:27:53.103Z,28.33
2023-03-04T16:30:23.261Z,26.00
2023-03-04T16:32:50.444Z,25.00
2023-03-04T16:35:19.465Z,23.33
2023-03-04T16:37:46.814Z,30.67
2023-03-04T16:40:20.442Z,25.00
2023-03-04T16:42:47.358Z,25.00
2023-03-04T16:45:20.167Z,24.00
2023-03-04T16:47:47.774Z,21.33
2023-03-04T16:50:20.822Z,18.00
2023-03-04T16:52:49.446Z,21.00
2023-03-04T16:55:20.264Z,19.33
2023-03-04T16:57:47.766Z,15.00
2023-03-04T17:00:19.868Z,17.33
2023-03-04T17:02:57.230Z,18.00
2023-03-04T17:05:27.173Z,19.67
2023-03-04T17:07:54.118Z,22.67
2023-03-04T17:10:22.092Z,17.00
2023-03-04T17:12:50.258Z,21.00
2023-03-04T17:15:17.268Z,17.33
2023-03-04T17:17:44.757Z,18.33
2023-03-04T17:20:15.336Z,19.33
2023-03-04T17:22:43.029Z,22.67
2023-03-04T17:25:11.664Z,18.00
2023-03-04T17:27:38.723Z,21.00
2023-03-04T17:30:08.022Z,20.00
2023-03-04T17:32:35.959Z,16.67
2023-03-04T17:35:03.506Z,14.00
2023-03-04T17:37:30.450Z,12.00
2023-03-04T17:39:57.320Z,21.00
2023-03-04T17:42:24.286Z,19.33
2023-03-04T17:44:51.303Z,22.00
2023-03-04T17:47:18.309Z,23.33
2023-03-04T17:49:45.217Z,21.67
2023-03-04T17:52:12.306Z,22.00
2023-03-04T17:54:39.296Z,26.00
2023-03-04T17:57:06.240Z,20.33
2023-03-04T17:59:33.162Z,20.00
2023-03-04T18:02:00.067Z,14.00
2023-03-04T18:04:27.054Z,24.00
2023-03-04T18:06:54.004Z,22.67
2023-03-04T18:09:20.962Z,21.33
2023-03-04T18:11:47.965Z,22.67
2023-03-04T18:14:15.424Z,21.67
2023-03-04T18:16:42.660Z,22.00
2023-03-04T18:19:09.724Z,17.67
2023-03-04T18:21:37.073Z,20.00
2023-03-04T18:24:04.456Z,21.00
2023-03-04T18:26:31.549Z,16.67
2023-03-04T18:28:59.791Z,15.33
2023-03-04T18:31:31.550Z,13.00
2023-03-04T18:34:01.662Z,17.00
2023-03-04T18:36:29.103Z,19.33
2023-03-04T18:38:57.532Z,22.00
2023-03-04T18:41:27.154Z,22.00
2023-03-04T18:43:54.386Z,21.67
2023-03-04T18:46:44.519Z,22.67
2023-03-04T18:49:13.054Z,26.33
2023-03-04T18:51:40.078Z,19.33
2023-03-04T18:54:07.248Z,19.00
2023-03-04T18:56:43.837Z,20.67
2023-03-04T18:59:18.934Z,21.00
2023-03-04T19:01:47.064Z,23.67
2023-03-04T19:04:16.962Z,14.67
2023-03-04T19:06:44.023Z,19.67
2023-03-04T19:09:11.245Z,21.67
2023-03-04T19:11:38.286Z,20.00
2023-03-04T19:14:06.185Z,27.00
2023-03-04T19:16:33.150Z,20.33
2023-03-04T19:19:00.162Z,24.33
2023-03-04T19:21:27.037Z,24.33
2023-03-04T19:23:53.954Z,24.00
2023-03-04T19:26:20.872Z,25.67
2023-03-04T19:28:47.937Z,27.00
2023-03-04T19:31:15.027Z,31.67
2023-03-04T19:33:42.119Z,29.00
2023-03-04T19:36:09.785Z,19.33
2023-03-04T19:38:37.007Z,20.33
2023-03-04T19:41:15.609Z,26.00
2023-03-04T19:43:42.624Z,26.33
2023-03-04T19:46:10.817Z,26.33
2023-03-04T19:48:39.631Z,25.33
2023-03-04T19:51:20.164Z,25.25
2023-03-04T19:53:48.540Z,23.00
2023-03-04T19:56:15.394Z,22.00
2023-03-04T19:58:42.544Z,25.67
2023-03-04T20:01:31.062Z,21.33
2023-03-04T20:04:04.322Z,15.00
2023-03-04T20:06:31.606Z,19.33
2023-03-04T20:09:00.459Z,28.00
2023-03-04T20:11:29.455Z,23.33
2023-03-04T20:13:58.646Z,23.33
2023-03-04T20:16:26.380Z,24.33
2023-03-04T20:18:53.916Z,17.33
2023-03-04T20:21:20.986Z,20.33
2023-03-04T20:23:47.861Z,21.33
2023-03-04T20:26:14.851Z,18.33
2023-03-04T20:28:41.765Z,25.33
2023-03-04T20:31:15.842Z,22.00
2023-03-04T20:33:43.791Z,20.67
2023-03-04T20:36:10.801Z,21.00
2023-03-04T20:38:38.149Z,20.33
2023-03-04T20:41:05.947Z,25.67
2023-03-04T20:43:32.883Z,24.33
2023-03-04T20:46:24.380Z,22.33
2023-03-04T20:48:51.358Z,21.33
2023-03-04T20:51:18.247Z,23.33
2023-03-04T20:53:45.161Z,19.67
2023-03-04T20:56:12.230Z,24.67
2023-03-04T20:58:39.148Z,21.67
2023-03-04T21:01:06.048Z,23.00
2023-03-04T21:03:33.195Z,26.00
2023-03-04T21:06:04.896Z,18.67
2023-03-04T21:08:32.108Z,19.00
2023-03-04T21:10:58.972Z,18.33
2023-03-04T21:13:30.473Z,18.00
2023-03-04T21:15:58.862Z,26.67
2023-03-04T21:18:28.540Z,23.00
2023-03-04T21:20:56.474Z,11.00
2023-03-04T21:23:23.412Z,10.00
2023-03-04T21:25:50.341Z,11.00
2023-03-04T21:28:19.047Z,9.00
2023-03-04T21:30:46.213Z,5.00
2023-03-04T21:33:18.962Z,9.00
2023-03-04T21:35:48.400Z,6.00
2023-03-04T21:38:15.434Z,6.00
2023-03-04T21:40:45.600Z,5.00
2023-03-04T21:43:12.518Z,5.75
2023-03-04T21:45:39.444Z,6.00
2023-03-04T21:48:06.536Z,5.00
2023-03-04T21:50:33.471Z,4.33
2023-03-04T21:53:00.358Z,3.00
2023-03-04T21:55:27.329Z,5.00
2023-03-04T21:57:54.251Z,0.00
2023-03-04T22:00:22.021Z,6.67
2023-03-04T22:02:49.042Z,6.00
2023-03-04T22:05:17.876Z,8.00
2023-03-04T22:07:45.888Z,5.00
2023-03-04T22:10:12.792Z,8.00
2023-03-04T22:12:39.733Z,5.00
2023-03-04T22:15:07.038Z,6.00
2023-03-04T22:17:34.366Z,6.00
2023-03-04T22:20:02.846Z,7.00
2023-03-04T22:22:30.535Z,6.00
2023-03-04T22:24:59.654Z,8.33
2023-03-04T22:27:26.628Z,6.00
2023-03-04T22:29:53.532Z,6.00
2023-03-04T22:32:20.415Z,5.00
2023-03-04T22:34:47.310Z,5.00
2023-03-04T22:37:14.259Z,6.00
2023-03-04T22:39:41.658Z,8.33
2023-03-04T22:42:11.653Z,9.00
2023-03-04T22:44:38.606Z,7.67
2023-03-04T22:47:05.690Z,8.00
2023-03-04T22:49:33.557Z,9.00
2023-03-04T22:52:00.470Z,8.00
2023-03-04T22:54:29.768Z,8.00
2023-03-04T22:56:56.706Z,9.00
2023-03-04T22:59:23.677Z,4.00
2023-03-04T23:01:50.788Z,6.00
2023-03-04T23:04:17.725Z,8.67
2023-03-04T23:06:44.769Z,9.00
2023-03-04T23:09:11.802Z,2.00
2023-03-04T23:11:39.719Z,9.00
2023-03-04T23:14:08.305Z,8.33
2023-03-04T23:16:43.464Z,9.00
2023-03-04T23:19:15.610Z,5.00
2023-03-04T23:21:43.174Z,8.33
2023-03-04T23:24:12.078Z,11.00
2023-03-04T23:26:41.361Z,11.33
2023-03-04T23:29:11.704Z,9.67
2023-03-04T23:31:39.033Z,8.33
2023-03-04T23:34:07.273Z,12.00
2023-03-04T23:36:36.469Z,2.00
2023-03-04T23:39:05.509Z,9.00
2023-03-04T23:41:34.537Z,12.00
2023-03-04T23:44:02.119Z,11.33
2023-03-04T23:46:29.273Z,12.00
2023-03-04T23:48:56.524Z,4.33
2023-03-04T23:51:26.689Z,12.00
2023-03-04T23:53:54.448Z,12.00
2023-03-04T23:56:24.229Z,10.00
2023-03-04T23:58:51.237Z,8.33
